Hamnavoe — VSTY7 — position and weather

sailwx.info

Track history (hours):
 
Tides and Currents Weather Stations Pressure Air Temp Water Temp Dewpoint Dewpoint Depression Visibility Wind Speed Wind Dir Waves Ship Positions

Hamnavoe

Operator: NorthLink Orkey & Shetland Ferries Ltd

Last reported at 2017-Jun-29 01:28 UTC. Time now 2017-Jun-29 01:51 UTC.
Position N 58°58' W 003°18'.

Length 112 m; draft 4.2 m.

Type: Ship. MMSI: 235449000.

Date/timePositionNaut miles runAvg speedWind from/ knotsBaromVisibWave heightAir tempDewpointWater temp
2017-Jun-29 01:28N 58°58' W 003°18'0 0.0
2017-Jun-29 00:58N 58°58' W 003°18'0 0.0
2017-Jun-29 00:28N 58°58' W 003°18'0 0.0
2017-Jun-28 23:58N 58°58' W 003°18'0 0.0
2017-Jun-28 23:28N 58°58' W 003°18'0 0.0
2017-Jun-28 22:58N 58°58' W 003°18'0 0.0
2017-Jun-28 22:28N 58°58' W 003°18'0 0.0
2017-Jun-28 21:58N 58°58' W 003°18'0 0.0
2017-Jun-28 21:28N 58°58' W 003°18'0 0.0
2017-Jun-28 20:58N 58°58' W 003°18'0 0.0
2017-Jun-28 20:28N 58°58' W 003°18'0 0.0
2017-Jun-28 19:58N 58°58' W 003°18'0 0.0
2017-Jun-28 19:30N 58°58' W 003°18'510.3
2017-Jun-28 19:01N 58°55' W 003°26'917.7
2017-Jun-28 18:30N 58°46' W 003°29'816.9
2017-Jun-28 18:00N 58°38' W 003°31'1 2.2
2017-Jun-28 17:28N 58°37' W 003°32'3 6.8
2017-Jun-28 17:00N 58°40' W 003°31'917.6
2017-Jun-28 16:30N 58°48' W 003°29'816.8
2017-Jun-28 16:00N 58°56' W 003°24'3 6.7
2017-Jun-28 15:30N 58°58' W 003°18'0 0.0
2017-Jun-28 15:00N 58°58' W 003°18'0 0.0
2017-Jun-28 14:00N 58°58' W 003°18'1 1.6
2017-Jun-28 13:30N 58°57' W 003°17'714.9
2017-Jun-28 13:00N 58°52' W 003°28'917.2
2017-Jun-28 12:30N 58°43' W 003°30'713.9
2017-Jun-28 12:00N 58°37' W 003°32'0 0.0
2017-Jun-28 11:31N 58°37' W 003°32'612.4
2017-Jun-28 11:00N 58°43' W 003°30'918.5
2017-Jun-28 10:31N 58°52' W 003°28'714.5
2017-Jun-28 10:00N 58°57' W 003°17'1 1.9
2017-Jun-28 09:30N 58°58' W 003°18'1 2.1
2017-Jun-28 09:00N 58°57' W 003°18'815.4
2017-Jun-28 08:30N 58°51' W 003°28'918.2
2017-Jun-28 08:00N 58°42' W 003°30'611.4
2017-Jun-28 07:30N 58°37' W 003°32'0 0.0
2017-Jun-28 07:00N 58°37' W 003°32'713.9
2017-Jun-28 06:31N 58°43' W 003°30'917.4
2017-Jun-28 06:01N 58°52' W 003°28'815.2
2017-Jun-28 05:30N 58°57' W 003°18'0 0.6
2017-Jun-28 05:00N 58°58' W 003°18'0 0.0
2017-Jun-28 04:30N 58°58' W 003°18'0 0.0
2017-Jun-28 04:00N 58°58' W 003°18'0 0.0
2017-Jun-28 03:30N 58°58' W 003°18'0 0.0
2017-Jun-28 03:00N 58°58' W 003°18'0 0.0
2017-Jun-28 02:30N 58°58' W 003°18'0 0.0
2017-Jun-28 02:00N 58°58' W 003°18'0 0.0
2017-Jun-28 01:30N 58°58' W 003°18'0 0.0
2017-Jun-28 01:00N 58°58' W 003°18'0 0.0
2017-Jun-28 00:30N 58°58' W 003°18'0 0.0
2017-Jun-28 00:00N 58°58' W 003°18'0 0.0
2017-Jun-27 23:30N 58°58' W 003°18'0 0.0
2017-Jun-27 23:00N 58°58' W 003°18'0 0.0
2017-Jun-27 22:30N 58°58' W 003°18'0 0.0
2017-Jun-27 22:00N 58°58' W 003°18'0 0.0
2017-Jun-27 21:30N 58°58' W 003°18'0 0.0
2017-Jun-27 21:00N 58°58' W 003°18'0 0.0
2017-Jun-27 20:30N 58°58' W 003°18'0 0.0
2017-Jun-27 20:00N 58°58' W 003°18'0 0.0
2017-Jun-27 19:30N 58°58' W 003°18'510.2
2017-Jun-27 19:00N 58°55' W 003°26'917.8
2017-Jun-27 18:30N 58°47' W 003°30'917.3
2017-Jun-27 18:00N 58°38' W 003°31'1 2.6
2017-Jun-27 17:29N 58°37' W 003°32'2 3.2
2017-Jun-27 17:00N 58°38' W 003°31'917.9
2017-Jun-27 16:30N 58°47' W 003°30'816.6
2017-Jun-27 16:01N 58°55' W 003°26'510.2
2017-Jun-27 15:30N 58°58' W 003°18'0 0.0
2017-Jun-27 15:01N 58°58' W 003°18'0 0.0
2017-Jun-27 14:31N 58°58' W 003°18'1 1.1
2017-Jun-27 13:30N 58°57' W 003°19'815.2
2017-Jun-27 13:00N 58°51' W 003°28'917.6
2017-Jun-27 12:31N 58°42' W 003°30'611.8
2017-Jun-27 12:01N 58°37' W 003°32'0 0.0
2017-Jun-27 11:30N 58°37' W 003°32'612.4
2017-Jun-27 11:00N 58°43' W 003°30'918.5
2017-Jun-27 10:30N 58°52' W 003°28'714.5
2017-Jun-27 10:00N 58°57' W 003°18'1 2.0
2017-Jun-27 09:31N 58°58' W 003°18'1 1.5
2017-Jun-27 09:00N 58°57' W 003°17'815.1
2017-Jun-27 08:30N 58°52' W 003°28'917.8
2017-Jun-27 08:00N 58°43' W 003°30'713.1
2017-Jun-27 07:30N 58°37' W 003°32'0 0.1
2017-Jun-27 07:00N 58°37' W 003°32'815.7
2017-Jun-27 06:30N 58°44' W 003°30'917.4
2017-Jun-27 06:00N 58°53' W 003°28'713.9
2017-Jun-27 05:30N 58°58' W 003°18'0 0.4
2017-Jun-27 05:00N 58°58' W 003°18'0 0.0
2017-Jun-27 04:30N 58°58' W 003°18'0 0.0
2017-Jun-27 04:00N 58°58' W 003°18'0 0.0
2017-Jun-27 03:30N 58°58' W 003°18'0 0.0
2017-Jun-27 03:00N 58°58' W 003°18'0 0.0
2017-Jun-27 02:30N 58°58' W 003°18'0 0.0
2017-Jun-27 02:00N 58°58' W 003°18'0 0.0
2017-Jun-27 01:30N 58°58' W 003°18'0 0.0
2017-Jun-27 01:00N 58°58' W 003°18'0 0.0
2017-Jun-27 00:30N 58°58' W 003°18'0 0.0
2017-Jun-27 00:00N 58°58' W 003°18'0 0.0
2017-Jun-26 23:30N 58°58' W 003°18'0 0.0
2017-Jun-26 23:00N 58°58' W 003°18'0 0.0
2017-Jun-26 22:30N 58°58' W 003°18'0 0.0
2017-Jun-26 22:00N 58°58' W 003°18'0 0.0
2017-Jun-26 21:30N 58°58' W 003°18'0 0.0
2017-Jun-26 21:00N 58°58' W 003°18'0 0.0
2017-Jun-26 20:30N 58°58' W 003°18'0 0.0
2017-Jun-26 20:00N 58°58' W 003°18'0 0.9
2017-Jun-26 19:30N 58°57' W 003°18'714.5
2017-Jun-26 19:00N 58°52' W 003°28'917.1
2017-Jun-26 18:30N 58°44' W 003°31'714.7
2017-Jun-26 18:00N 58°37' W 003°32'0 0.0
2017-Jun-26 17:30N 58°37' W 003°32'3 6.8
2017-Jun-26 17:00N 58°40' W 003°31'917.6
2017-Jun-26 16:30N 58°49' W 003°29'816.7
2017-Jun-26 16:00N 58°56' W 003°23'3 5.9
2017-Jun-26 15:30N 58°58' W 003°18'0 0.0
2017-Jun-26 15:00N 58°58' W 003°18'0 0.0
2017-Jun-26 14:00N 58°58' W 003°18'2 4.4
2017-Jun-26 13:30N 58°57' W 003°21'815.7
2017-Jun-26 13:00N 58°50' W 003°29'816.8
2017-Jun-26 12:30N 58°41' W 003°30'5 9.7
2017-Jun-26 12:00N 58°37' W 003°32'1 1.2
2017-Jun-26 11:26N 58°37' W 003°32'817.7
2017-Jun-26 11:00N 58°45' W 003°30'918.5
2017-Jun-26 10:30N 58°54' W 003°27'611.8
2017-Jun-26 10:00N 58°58' W 003°18'0 0.2
2017-Jun-26 09:26N 58°58' W 003°18'4 8.2
2017-Jun-26 09:00N 58°56' W 003°24'815.5
2017-Jun-26 08:30N 58°49' W 003°28'816.4
2017-Jun-26 08:00N 58°41' W 003°31'4 8.5
2017-Jun-26 07:30N 58°37' W 003°32'0 0.2
2017-Jun-26 06:59N 58°37' W 003°33'816.7
2017-Jun-26 06:30N 58°45' W 003°30'917.4
2017-Jun-26 06:00N 58°53' W 003°27'713.4
2017-Jun-26 05:30N 58°58' W 003°18'0 0.4
2017-Jun-26 04:58N 58°58' W 003°18'0 0.0
2017-Jun-26 04:28N 58°58' W 003°18'0 0.0
2017-Jun-26 03:58N 58°58' W 003°18'0 0.0
2017-Jun-26 03:28N 58°58' W 003°18'0 0.0
2017-Jun-26 02:58N 58°58' W 003°18'0 0.0
2017-Jun-26 02:28N 58°58' W 003°18'0 0.0
2017-Jun-26 01:58N 58°58' W 003°18'0 0.0
2017-Jun-26 01:28N 58°58' W 003°18'0 0.0
2017-Jun-26 00:58N 58°58' W 003°18'0 0.0
2017-Jun-26 00:28N 58°58' W 003°18'0 0.0
2017-Jun-25 23:58N 58°58' W 003°18'0 0.0
2017-Jun-25 23:28N 58°58' W 003°18'0 0.0
2017-Jun-25 22:58N 58°58' W 003°18'0 0.0
2017-Jun-25 22:28N 58°58' W 003°18'0 0.0
2017-Jun-25 21:58N 58°58' W 003°18'0 0.0
2017-Jun-25 21:28N 58°58' W 003°18'0 0.0
2017-Jun-25 20:58N 58°58' W 003°18'0 0.0
2017-Jun-25 20:28N 58°58' W 003°18'0 0.0
2017-Jun-25 19:58N 58°58' W 003°18'0 0.0
2017-Jun-25 19:30N 58°58' W 003°18'611.2
2017-Jun-25 19:01N 58°55' W 003°27'815.8
2017-Jun-25 18:31N 58°47' W 003°30'815.4
2017-Jun-25 18:00N 58°39' W 003°31'3 5.2
2017-Jun-25 17:30N 58°37' W 003°32'3 5.3
2017-Jun-25 17:00N 58°39' W 003°31'917.4
2017-Jun-25 16:30N 58°48' W 003°30'816.8
2017-Jun-25 16:00N 58°56' W 003°25'4 8.8
2017-Jun-25 15:30N 58°58' W 003°18'0 0.0
2017-Jun-25 15:00N 58°58' W 003°18'0 0.0
2017-Jun-25 14:00N 58°58' W 003°18'0 0.0
2017-Jun-25 13:30N 58°58' W 003°18'0 0.0
2017-Jun-25 13:00N 58°58' W 003°18'2 3.2
2017-Jun-25 12:30N 58°57' W 003°16'816.2
2017-Jun-25 12:00N 58°49' W 003°09'713.3
2017-Jun-25 11:29N 58°44' W 003°18'817.5
2017-Jun-25 11:00N 58°38' W 003°30'2 2.3
2017-Jun-25 10:05N 58°37' W 003°32'2 8.7
2017-Jun-25 09:52N 58°38' W 003°30'514.3
2017-Jun-25 09:30N 58°42' W 003°24'612.3
2017-Jun-25 08:59N 58°46' W 003°14'4 9.4
2017-Jun-25 08:30N 58°50' W 003°11'816.7
2017-Jun-25 08:00N 58°57' W 003°18'0 0.4
2017-Jun-25 07:19N 58°58' W 003°18'0 0.0
2017-Jun-25 06:58N 58°58' W 003°18'0 0.0
2017-Jun-25 06:28N 58°58' W 003°18'0 0.0
2017-Jun-25 05:58N 58°58' W 003°18'0 0.0
2017-Jun-25 05:28N 58°58' W 003°18'0 0.0
2017-Jun-25 04:58N 58°58' W 003°18'0 0.0
2017-Jun-25 04:28N 58°58' W 003°18'0 0.0
2017-Jun-25 03:58N 58°58' W 003°18'0 0.0
2017-Jun-25 03:28N 58°58' W 003°18'0 0.0
2017-Jun-25 02:58N 58°58' W 003°18'0 0.0
2017-Jun-25 02:28N 58°58' W 003°18'0 0.0
2017-Jun-25 01:58N 58°58' W 003°18'0 0.0
2017-Jun-25 01:28N 58°58' W 003°18'0 0.0
2017-Jun-25 00:58N 58°58' W 003°18'0 0.0
2017-Jun-25 00:28N 58°58' W 003°18'0 0.0
2017-Jun-24 23:58N 58°58' W 003°18'0 0.0
2017-Jun-24 23:28N 58°58' W 003°18'0 0.0
2017-Jun-24 22:58N 58°58' W 003°18'0 0.0
2017-Jun-24 22:25N 58°58' W 003°18'0 0.0
2017-Jun-24 21:58N 58°58' W 003°18'0 0.1
2017-Jun-24 21:30N 58°58' W 003°18'713.3
2017-Jun-24 21:01N 58°52' W 003°11'612.3
2017-Jun-24 20:30N 58°46' W 003°13'1020.1
2017-Jun-24 20:00N 58°40' W 003°28'4 5.0
2017-Jun-24 19:13N 58°37' W 003°32'1 3.7
2017-Jun-24 18:58N 58°38' W 003°32'716.0
2017-Jun-24 18:30N 58°43' W 003°41'5 9.5
2017-Jun-24 18:01N 58°48' W 003°43'611.5
2017-Jun-24 17:30N 58°51' W 003°34'612.4
2017-Jun-24 17:00N 58°56' W 003°26'5 9.1
2017-Jun-24 16:30N 58°58' W 003°18'0 0.0
2017-Jun-24 16:00N 58°58' W 003°18'3 5.5
2017-Jun-24 15:30N 58°56' W 003°14'816.1
2017-Jun-24 15:01N 58°50' W 003°03'1111.0
2017-Jun-24 14:00N 58°41' W 003°15'815.0
2017-Jun-24 13:31N 58°39' W 003°29'3 5.3
2017-Jun-24 12:59N 58°37' W 003°32'0 0.2
2017-Jun-24 12:29N 58°37' W 003°33'713.9
2017-Jun-24 12:00N 58°42' W 003°38'714.9
2017-Jun-24 11:30N 58°50' W 003°34'714.5
2017-Jun-24 11:00N 58°56' W 003°26'5 9.5
2017-Jun-24 10:30N 58°58' W 003°18'0 0.0
2017-Jun-24 10:00N 58°58' W 003°18'510.3
2017-Jun-24 09:30N 58°54' W 003°12'714.3
2017-Jun-24 09:00N 58°47' W 003°09'1020.6
2017-Jun-24 08:30N 58°41' W 003°26'611.3
2017-Jun-24 07:59N 58°37' W 003°32'1 1.2
2017-Jun-24 07:25N 58°37' W 003°32'614.0
2017-Jun-24 07:00N 58°41' W 003°24'812.4
2017-Jun-24 06:24N 58°46' W 003°12'411.3
2017-Jun-24 06:00N 58°50' W 003°10'816.8
2017-Jun-24 05:30N 58°57' W 003°18'0 0.7
2017-Jun-24 05:01N 58°58' W 003°18'0 0.0
2017-Jun-24 04:30N 58°58' W 003°18'0 0.0
2017-Jun-24 04:01N 58°58' W 003°18'0 0.0
2017-Jun-24 03:30N 58°58' W 003°18'0 0.0
2017-Jun-24 03:00N 58°58' W 003°18'0 0.0
2017-Jun-24 02:30N 58°58' W 003°18'0 0.0
2017-Jun-24 02:00N 58°58' W 003°18'0 0.0
2017-Jun-24 01:30N 58°58' W 003°18'0 0.0
2017-Jun-24 01:00N 58°58' W 003°18'0 0.0
2017-Jun-24 00:30N 58°58' W 003°18'0 0.0
2017-Jun-24 00:01N 58°58' W 003°18'0 0.0
2017-Jun-23 23:31N 58°58' W 003°18'0 0.0
2017-Jun-23 23:00N 58°58' W 003°18'0 0.0
2017-Jun-23 22:30N 58°58' W 003°18'0 0.0
2017-Jun-23 22:00N 58°58' W 003°18'0 0.0
2017-Jun-23 21:30N 58°58' W 003°18'0 0.0
2017-Jun-23 21:00N 58°58' W 003°18'0 0.0
2017-Jun-23 20:30N 58°58' W 003°18'0 0.0
2017-Jun-23 20:01N 58°58' W 003°18'3 5.9
2017-Jun-23 19:30N 58°57' W 003°23'815.9
2017-Jun-23 19:00N 58°49' W 003°29'816.9
2017-Jun-23 18:30N 58°41' W 003°31'4 8.5
2017-Jun-23 18:00N 58°37' W 003°32'0 0.1
2017-Jun-23 17:27N 58°37' W 003°32'614.5
2017-Jun-23 17:00N 58°43' W 003°31'816.2
2017-Jun-23 16:30N 58°51' W 003°28'714.0
2017-Jun-23 16:00N 58°57' W 003°21'2 3.9
2017-Jun-23 15:30N 58°58' W 003°18'0 0.0
2017-Jun-23 15:00N 58°58' W 003°18'0 0.0
2017-Jun-23 14:00N 58°58' W 003°18'4 7.6
2017-Jun-23 13:30N 58°56' W 003°24'917.6
2017-Jun-23 13:00N 58°48' W 003°30'917.1
2017-Jun-23 12:30N 58°39' W 003°31'3 5.3
2017-Jun-23 11:59N 58°37' W 003°32'1 1.8
2017-Jun-23 11:30N 58°37' W 003°32'917.7
2017-Jun-23 11:00N 58°46' W 003°30'816.2
2017-Jun-23 10:30N 58°54' W 003°27'611.8
2017-Jun-23 10:00N 58°58' W 003°18'0 0.3
2017-Jun-23 09:30N 58°58' W 003°18'2 3.1
2017-Jun-23 09:00N 58°57' W 003°20'815.7
2017-Jun-23 08:30N 58°50' W 003°29'917.4
2017-Jun-23 08:00N 58°42' W 003°30'510.2
2017-Jun-23 07:30N 58°37' W 003°32'0 0.1
2017-Jun-23 06:59N 58°37' W 003°32'816.0
2017-Jun-23 06:30N 58°44' W 003°30'917.9
2017-Jun-23 06:00N 58°53' W 003°28'713.2
2017-Jun-23 05:30N 58°57' W 003°18'1 1.0
2017-Jun-23 04:57N 58°58' W 003°18'0 0.0
2017-Jun-23 04:27N 58°58' W 003°18'0 0.0
2017-Jun-23 03:57N 58°58' W 003°18'0 0.0
2017-Jun-23 03:27N 58°58' W 003°18'0 0.0
2017-Jun-23 02:57N 58°58' W 003°18'0 0.0
2017-Jun-23 02:27N 58°58' W 003°18'0 0.0
2017-Jun-23 01:57N 58°58' W 003°18'0 0.0
2017-Jun-23 01:28N 58°58' W 003°18'0 0.0
2017-Jun-23 01:00N 58°58' W 003°18'0 0.0
2017-Jun-23 00:27N 58°58' W 003°18'0 0.0
2017-Jun-22 23:57N 58°58' W 003°18'0 0.0
2017-Jun-22 23:27N 58°58' W 003°18'0 0.0
2017-Jun-22 22:57N 58°58' W 003°18'0 0.0
2017-Jun-22 22:30N 58°58' W 003°18'0 0.0
2017-Jun-22 22:00N 58°58' W 003°18'0 0.0
2017-Jun-22 21:15N 58°58' W 003°18'0 0.0
2017-Jun-22 21:00N 58°58' W 003°18'0 0.0
2017-Jun-22 20:30N 58°58' W 003°18'0 0.0
2017-Jun-22 19:57N 58°58' W 003°18'0 0.0
2017-Jun-22 19:30N 58°58' W 003°18'611.5
2017-Jun-22 19:00N 58°54' W 003°27'816.9
2017-Jun-22 18:30N 58°46' W 003°31'917.9
2017-Jun-22 18:00N 58°37' W 003°32'1 1.1
2017-Jun-22 17:26N 58°37' W 003°32'3 7.6
2017-Jun-22 17:01N 58°40' W 003°30'917.6
2017-Jun-22 16:31N 58°48' W 003°27'916.9
2017-Jun-22 16:00N 58°56' W 003°23'3 5.7
2017-Jun-22 15:30N 58°58' W 003°18'0 0.0
2017-Jun-22 15:00N 58°58' W 003°18'0 0.0
2017-Jun-22 14:30N 58°58' W 003°18'1 1.0
2017-Jun-22 13:30N 58°57' W 003°17'714.6
2017-Jun-22 13:01N 58°52' W 003°28'918.1
2017-Jun-22 12:30N 58°43' W 003°30'612.8
2017-Jun-22 12:01N 58°37' W 003°32'0 0.1
2017-Jun-22 11:30N 58°37' W 003°32'714.5
2017-Jun-22 11:01N 58°44' W 003°30'917.4
2017-Jun-22 10:30N 58°52' W 003°28'714.5
2017-Jun-22 10:00N 58°57' W 003°18'0 0.7
2017-Jun-22 09:30N 58°58' W 003°18'1 2.4
2017-Jun-22 09:01N 58°57' W 003°19'815.3
2017-Jun-22 08:30N 58°51' W 003°28'917.5
2017-Jun-22 08:00N 58°42' W 003°31'611.0
2017-Jun-22 07:30N 58°37' W 003°32'3 4.3
2017-Jun-22 06:47N 58°40' W 003°31'517.6
2017-Jun-22 06:30N 58°45' W 003°30'918.4
2017-Jun-22 06:00N 58°54' W 003°27'612.2
2017-Jun-22 05:30N 58°58' W 003°18'0 0.4
2017-Jun-22 04:54N 58°58' W 003°18'0 0.0
2017-Jun-22 04:30N 58°58' W 003°18'0 0.0
2017-Jun-22 04:00N 58°58' W 003°18'0 0.0
2017-Jun-22 03:30N 58°58' W 003°18'0 0.0
2017-Jun-22 03:00N 58°58' W 003°18'0 0.0
2017-Jun-22 02:30N 58°58' W 003°18'0 0.0
2017-Jun-22 02:00N 58°58' W 003°18'0 0.0
2017-Jun-22 01:30N 58°58' W 003°18'0 0.0
2017-Jun-22 01:00N 58°58' W 003°18'0 0.0
2017-Jun-22 00:30N 58°58' W 003°18'0 0.0
2017-Jun-21 23:54N 58°58' W 003°18'0 0.0
2017-Jun-21 23:30N 58°58' W 003°18'0 0.0
2017-Jun-21 23:00N 58°58' W 003°18'0 0.0
2017-Jun-21 22:30N 58°58' W 003°18'0 0.0
2017-Jun-21 22:00N 58°58' W 003°18'0 0.0
2017-Jun-21 21:30N 58°58' W 003°18'0 0.0
2017-Jun-21 20:59N 58°58' W 003°18'0 0.0
2017-Jun-21 20:29N 58°58' W 003°18'0 0.0
2017-Jun-21 19:59N 58°58' W 003°18'0 0.0
2017-Jun-21 19:30N 58°58' W 003°18'4 7.9
2017-Jun-21 19:00N 58°56' W 003°24'917.2
2017-Jun-21 18:30N 58°48' W 003°30'917.6
2017-Jun-21 18:00N 58°39' W 003°31'3 5.0
2017-Jun-21 17:30N 58°37' W 003°32'2 4.6
2017-Jun-21 17:00N 58°39' W 003°31'917.8
2017-Jun-21 16:30N 58°48' W 003°29'917.8
2017-Jun-21 16:00N 58°56' W 003°24'4 7.1
2017-Jun-21 15:31N 58°58' W 003°18'0 0.0
2017-Jun-21 15:01N 58°58' W 003°18'0 0.0
2017-Jun-21 14:30N 58°58' W 003°18'2 1.7
2017-Jun-21 13:30N 58°57' W 003°20'815.8
2017-Jun-21 13:00N 58°50' W 003°28'918.0
2017-Jun-21 12:30N 58°41' W 003°31'5 9.2
2017-Jun-21 12:00N 58°37' W 003°32'0 0.1
2017-Jun-21 11:30N 58°37' W 003°32'714.5
2017-Jun-21 11:00N 58°44' W 003°30'917.0
2017-Jun-21 10:30N 58°52' W 003°28'714.6
2017-Jun-21 10:00N 58°57' W 003°18'0 0.8
2017-Jun-21 09:30N 58°58' W 003°18'1 2.1
2017-Jun-21 09:00N 58°57' W 003°18'714.3
2017-Jun-21 08:30N 58°52' W 003°28'917.9
2017-Jun-21 08:00N 58°43' W 003°30'612.7
2017-Jun-21 07:30N 58°37' W 003°32'0 0.3
2017-Jun-21 06:58N 58°37' W 003°32'715.8
2017-Jun-21 06:30N 58°44' W 003°30'918.1
2017-Jun-21 06:00N 58°53' W 003°27'713.6
2017-Jun-21 05:30N 58°57' W 003°18'0 0.6
2017-Jun-21 04:58N 58°58' W 003°18'0 0.0
2017-Jun-21 04:28N 58°58' W 003°18'0 0.0
2017-Jun-21 04:00N 58°58' W 003°18'0 0.0
2017-Jun-21 03:30N 58°58' W 003°18'0 0.0
2017-Jun-21 03:00N 58°58' W 003°18'0 0.0
2017-Jun-21 02:30N 58°58' W 003°18'0 0.0
2017-Jun-21 02:00N 58°58' W 003°18'0 0.0
2017-Jun-21 01:30N 58°58' W 003°18'0 0.0
2017-Jun-21 01:00N 58°58' W 003°18'0 0.0
2017-Jun-21 00:30N 58°58' W 003°18'0 0.0
2017-Jun-21 00:00N 58°58' W 003°18'0 0.0
2017-Jun-20 23:30N 58°58' W 003°18'0 0.0
2017-Jun-20 23:00N 58°58' W 003°18'0 0.0
2017-Jun-20 22:30N 58°58' W 003°18'0 0.0
2017-Jun-20 22:00N 58°58' W 003°18'0 0.0
2017-Jun-20 21:30N 58°58' W 003°18'0 0.0
2017-Jun-20 21:00N 58°58' W 003°18'0 0.0
2017-Jun-20 20:30N 58°58' W 003°18'0 0.0
2017-Jun-20 20:00N 58°58' W 003°18'0 0.0
2017-Jun-20 19:30N 58°58' W 003°18'4 8.5
2017-Jun-20 19:01N 58°56' W 003°25'816.9
2017-Jun-20 18:31N 58°48' W 003°30'917.3
2017-Jun-20 18:00N 58°39' W 003°32'2 4.9
2017-Jun-20 17:30N 58°37' W 003°32'3 5.8
2017-Jun-20 16:57N 58°40' W 003°31'817.8
2017-Jun-20 16:30N 58°48' W 003°29'917.8
2017-Jun-20 16:00N 58°56' W 003°24'4 7.1
2017-Jun-20 15:30N 58°58' W 003°18'0 0.0
2017-Jun-20 15:00N 58°58' W 003°18'0 0.0
2017-Jun-20 14:00N 58°58' W 003°18'1 1.2
2017-Jun-20 13:30N 58°57' W 003°17'714.8
2017-Jun-20 13:00N 58°52' W 003°27'917.7
2017-Jun-20 12:31N 58°43' W 003°30'713.2
2017-Jun-20 12:00N 58°37' W 003°32'0 0.0
2017-Jun-20 11:30N 58°37' W 003°32'713.8
2017-Jun-20 11:01N 58°43' W 003°30'917.2
2017-Jun-20 10:30N 58°52' W 003°28'715.0
2017-Jun-20 10:00N 58°57' W 003°17'1 1.5
2017-Jun-20 09:31N 58°58' W 003°18'2 3.0
2017-Jun-20 09:00N 58°57' W 003°20'815.6
2017-Jun-20 08:30N 58°50' W 003°28'917.3
2017-Jun-20 08:00N 58°42' W 003°30'5 8.5
2017-Jun-20 07:24N 58°37' W 003°32'3 4.2
2017-Jun-20 06:43N 58°39' W 003°31'417.9
2017-Jun-20 06:30N 58°43' W 003°30'918.1
2017-Jun-20 06:00N 58°52' W 003°28'714.5
2017-Jun-20 05:30N 58°57' W 003°17'1 1.7
2017-Jun-20 04:59N 58°58' W 003°18'0 0.0
2017-Jun-20 04:29N 58°58' W 003°18'0 0.0
2017-Jun-20 03:59N 58°58' W 003°18'0 0.0
2017-Jun-20 03:29N 58°58' W 003°18'0 0.0
2017-Jun-20 02:59N 58°58' W 003°18'0 0.0
2017-Jun-20 02:29N 58°58' W 003°18'0 0.0
2017-Jun-20 01:59N 58°58' W 003°18'0 0.0
2017-Jun-20 01:29N 58°58' W 003°18'0 0.0
2017-Jun-20 00:59N 58°58' W 003°18'0 0.0
2017-Jun-20 00:29N 58°58' W 003°18'0 0.0
2017-Jun-19 23:59N 58°58' W 003°18'0 0.0
2017-Jun-19 23:29N 58°58' W 003°18'0 0.0
2017-Jun-19 22:59N 58°58' W 003°18'0 0.0
2017-Jun-19 22:29N 58°58' W 003°18'0 0.0
2017-Jun-19 21:59N 58°58' W 003°18'0 0.0
2017-Jun-19 21:29N 58°58' W 003°18'0 0.0
2017-Jun-19 20:59N 58°58' W 003°18'0 0.0
2017-Jun-19 20:29N 58°58' W 003°18'0 0.0
2017-Jun-19 19:59N 58°58' W 003°18'0 0.0
2017-Jun-19 19:30N 58°58' W 003°18'510.0
2017-Jun-19 19:00N 58°55' W 003°26'917.1
2017-Jun-19 18:30N 58°47' W 003°29'917.3
2017-Jun-19 18:00N 58°38' W 003°31'1 2.9
2017-Jun-19 17:30N 58°37' W 003°32'3 5.7
2017-Jun-19 17:00N 58°39' W 003°31'918.0
2017-Jun-19 16:30N 58°48' W 003°29'917.1
2017-Jun-19 16:00N 58°56' W 003°23'3 6.6
2017-Jun-19 15:30N 58°58' W 003°18'0 0.0
2017-Jun-19 15:00N 58°58' W 003°18'0 0.0
2017-Jun-19 14:30N 58°58' W 003°18'1 1.1
2017-Jun-19 13:30N 58°57' W 003°19'815.9
2017-Jun-19 13:00N 58°51' W 003°28'917.8
2017-Jun-19 12:30N 58°42' W 003°31'510.4
2017-Jun-19 12:00N 58°37' W 003°32'0 0.0
2017-Jun-19 11:30N 58°37' W 003°32'713.4
2017-Jun-19 11:01N 58°43' W 003°30'917.3
2017-Jun-19 10:30N 58°52' W 003°28'815.1
2017-Jun-19 10:00N 58°57' W 003°17'1 1.7
2017-Jun-19 09:30N 58°58' W 003°18'1 1.3
2017-Jun-19 09:00N 58°57' W 003°17'714.8
2017-Jun-19 08:30N 58°52' W 003°28'918.1
2017-Jun-19 08:00N 58°43' W 003°30'713.5
2017-Jun-19 07:30N 58°37' W 003°32'0 0.0
2017-Jun-19 07:00N 58°37' W 003°32'612.6
2017-Jun-19 06:31N 58°43' W 003°30'918.0
2017-Jun-19 06:01N 58°52' W 003°28'815.3
2017-Jun-19 05:30N 58°57' W 003°17'1 1.4
2017-Jun-19 04:55N 58°58' W 003°18'0 0.0
2017-Jun-19 04:27N 58°58' W 003°18'0 0.0
2017-Jun-19 04:00N 58°58' W 003°18'0 0.0
2017-Jun-19 03:31N 58°58' W 003°18'0 0.0
2017-Jun-19 03:01N 58°58' W 003°18'0 0.0
2017-Jun-19 02:25N 58°58' W 003°18'0 0.0
2017-Jun-19 01:55N 58°58' W 003°18'  
Track history (hours):
 
Tides and Currents Weather Stations Pressure Air Temp Water Temp Dewpoint Dewpoint Depression Visibility Wind Speed Wind Dir Waves Ship Positions

Hamnavoe

Operator: NorthLink Orkey & Shetland Ferries Ltd

Last reported at 2017-Jun-29 01:28 UTC. Time now 2017-Jun-29 01:51 UTC.
Position N 58°58' W 003°18'.

Length 112 m; draft 4.2 m.

Type: Ship. MMSI: 235449000.

Date/timePositionNaut miles runAvg speedWind from/ knotsBaromVisibWave heightAir tempDewpointWater temp
2017-Jun-29 01:28N 58°58' W 003°18'0 0.0
2017-Jun-29 00:58N 58°58' W 003°18'0 0.0
2017-Jun-29 00:28N 58°58' W 003°18'0 0.0
2017-Jun-28 23:58N 58°58' W 003°18'0 0.0
2017-Jun-28 23:28N 58°58' W 003°18'0 0.0
2017-Jun-28 22:58N 58°58' W 003°18'0 0.0
2017-Jun-28 22:28N 58°58' W 003°18'0 0.0
2017-Jun-28 21:58N 58°58' W 003°18'0 0.0
2017-Jun-28 21:28N 58°58' W 003°18'0 0.0
2017-Jun-28 20:58N 58°58' W 003°18'0 0.0
2017-Jun-28 20:28N 58°58' W 003°18'0 0.0
2017-Jun-28 19:58N 58°58' W 003°18'0 0.0
2017-Jun-28 19:30N 58°58' W 003°18'510.3
2017-Jun-28 19:01N 58°55' W 003°26'917.7
2017-Jun-28 18:30N 58°46' W 003°29'816.9
2017-Jun-28 18:00N 58°38' W 003°31'1 2.2
2017-Jun-28 17:28N 58°37' W 003°32'3 6.8
2017-Jun-28 17:00N 58°40' W 003°31'917.6
2017-Jun-28 16:30N 58°48' W 003°29'816.8
2017-Jun-28 16:00N 58°56' W 003°24'3 6.7
2017-Jun-28 15:30N 58°58' W 003°18'0 0.0
2017-Jun-28 15:00N 58°58' W 003°18'0 0.0
2017-Jun-28 14:00N 58°58' W 003°18'1 1.6
2017-Jun-28 13:30N 58°57' W 003°17'714.9
2017-Jun-28 13:00N 58°52' W 003°28'917.2
2017-Jun-28 12:30N 58°43' W 003°30'713.9
2017-Jun-28 12:00N 58°37' W 003°32'0 0.0
2017-Jun-28 11:31N 58°37' W 003°32'612.4
2017-Jun-28 11:00N 58°43' W 003°30'918.5
2017-Jun-28 10:31N 58°52' W 003°28'714.5
2017-Jun-28 10:00N 58°57' W 003°17'1 1.9
2017-Jun-28 09:30N 58°58' W 003°18'1 2.1
2017-Jun-28 09:00N 58°57' W 003°18'815.4
2017-Jun-28 08:30N 58°51' W 003°28'918.2
2017-Jun-28 08:00N 58°42' W 003°30'611.4
2017-Jun-28 07:30N 58°37' W 003°32'0 0.0
2017-Jun-28 07:00N 58°37' W 003°32'713.9
2017-Jun-28 06:31N 58°43' W 003°30'917.4
2017-Jun-28 06:01N 58°52' W 003°28'815.2
2017-Jun-28 05:30N 58°57' W 003°18'0 0.6
2017-Jun-28 05:00N 58°58' W 003°18'0 0.0
2017-Jun-28 04:30N 58°58' W 003°18'0 0.0
2017-Jun-28 04:00N 58°58' W 003°18'0 0.0
2017-Jun-28 03:30N 58°58' W 003°18'0 0.0
2017-Jun-28 03:00N 58°58' W 003°18'0 0.0
2017-Jun-28 02:30N 58°58' W 003°18'0 0.0
2017-Jun-28 02:00N 58°58' W 003°18'0 0.0
2017-Jun-28 01:30N 58°58' W 003°18'0 0.0
2017-Jun-28 01:00N 58°58' W 003°18'0 0.0
2017-Jun-28 00:30N 58°58' W 003°18'0 0.0
2017-Jun-28 00:00N 58°58' W 003°18'0 0.0
2017-Jun-27 23:30N 58°58' W 003°18'0 0.0
2017-Jun-27 23:00N 58°58' W 003°18'0 0.0
2017-Jun-27 22:30N 58°58' W 003°18'0 0.0
2017-Jun-27 22:00N 58°58' W 003°18'0 0.0
2017-Jun-27 21:30N 58°58' W 003°18'0 0.0
2017-Jun-27 21:00N 58°58' W 003°18'0 0.0
2017-Jun-27 20:30N 58°58' W 003°18'0 0.0
2017-Jun-27 20:00N 58°58' W 003°18'0 0.0
2017-Jun-27 19:30N 58°58' W 003°18'510.2
2017-Jun-27 19:00N 58°55' W 003°26'917.8
2017-Jun-27 18:30N 58°47' W 003°30'917.3
2017-Jun-27 18:00N 58°38' W 003°31'1 2.6
2017-Jun-27 17:29N 58°37' W 003°32'2 3.2
2017-Jun-27 17:00N 58°38' W 003°31'917.9
2017-Jun-27 16:30N 58°47' W 003°30'816.6
2017-Jun-27 16:01N 58°55' W 003°26'510.2
2017-Jun-27 15:30N 58°58' W 003°18'0 0.0
2017-Jun-27 15:01N 58°58' W 003°18'0 0.0
2017-Jun-27 14:31N 58°58' W 003°18'1 1.1
2017-Jun-27 13:30N 58°57' W 003°19'815.2
2017-Jun-27 13:00N 58°51' W 003°28'917.6
2017-Jun-27 12:31N 58°42' W 003°30'611.8
2017-Jun-27 12:01N 58°37' W 003°32'0 0.0
2017-Jun-27 11:30N 58°37' W 003°32'612.4
2017-Jun-27 11:00N 58°43' W 003°30'918.5
2017-Jun-27 10:30N 58°52' W 003°28'714.5
2017-Jun-27 10:00N 58°57' W 003°18'1 2.0
2017-Jun-27 09:31N 58°58' W 003°18'1 1.5
2017-Jun-27 09:00N 58°57' W 003°17'815.1
2017-Jun-27 08:30N 58°52' W 003°28'917.8
2017-Jun-27 08:00N 58°43' W 003°30'713.1
2017-Jun-27 07:30N 58°37' W 003°32'0 0.1
2017-Jun-27 07:00N 58°37' W 003°32'815.7
2017-Jun-27 06:30N 58°44' W 003°30'917.4
2017-Jun-27 06:00N 58°53' W 003°28'713.9
2017-Jun-27 05:30N 58°58' W 003°18'0 0.4
2017-Jun-27 05:00N 58°58' W 003°18'0 0.0
2017-Jun-27 04:30N 58°58' W 003°18'0 0.0
2017-Jun-27 04:00N 58°58' W 003°18'0 0.0
2017-Jun-27 03:30N 58°58' W 003°18'0 0.0
2017-Jun-27 03:00N 58°58' W 003°18'0 0.0
2017-Jun-27 02:30N 58°58' W 003°18'0 0.0
2017-Jun-27 02:00N 58°58' W 003°18'0 0.0
2017-Jun-27 01:30N 58°58' W 003°18'0 0.0
2017-Jun-27 01:00N 58°58' W 003°18'0 0.0
2017-Jun-27 00:30N 58°58' W 003°18'0 0.0
2017-Jun-27 00:00N 58°58' W 003°18'0 0.0
2017-Jun-26 23:30N 58°58' W 003°18'0 0.0
2017-Jun-26 23:00N 58°58' W 003°18'0 0.0
2017-Jun-26 22:30N 58°58' W 003°18'0 0.0
2017-Jun-26 22:00N 58°58' W 003°18'0 0.0
2017-Jun-26 21:30N 58°58' W 003°18'0 0.0
2017-Jun-26 21:00N 58°58' W 003°18'0 0.0
2017-Jun-26 20:30N 58°58' W 003°18'0 0.0
2017-Jun-26 20:00N 58°58' W 003°18'0 0.9
2017-Jun-26 19:30N 58°57' W 003°18'714.5
2017-Jun-26 19:00N 58°52' W 003°28'917.1
2017-Jun-26 18:30N 58°44' W 003°31'714.7
2017-Jun-26 18:00N 58°37' W 003°32'0 0.0
2017-Jun-26 17:30N 58°37' W 003°32'3 6.8
2017-Jun-26 17:00N 58°40' W 003°31'917.6
2017-Jun-26 16:30N 58°49' W 003°29'816.7
2017-Jun-26 16:00N 58°56' W 003°23'3 5.9
2017-Jun-26 15:30N 58°58' W 003°18'0 0.0
2017-Jun-26 15:00N 58°58' W 003°18'0 0.0
2017-Jun-26 14:00N 58°58' W 003°18'2 4.4
2017-Jun-26 13:30N 58°57' W 003°21'815.7
2017-Jun-26 13:00N 58°50' W 003°29'816.8
2017-Jun-26 12:30N 58°41' W 003°30'5 9.7
2017-Jun-26 12:00N 58°37' W 003°32'1 1.2
2017-Jun-26 11:26N 58°37' W 003°32'817.7
2017-Jun-26 11:00N 58°45' W 003°30'918.5
2017-Jun-26 10:30N 58°54' W 003°27'611.8
2017-Jun-26 10:00N 58°58' W 003°18'0 0.2
2017-Jun-26 09:26N 58°58' W 003°18'4 8.2
2017-Jun-26 09:00N 58°56' W 003°24'815.5
2017-Jun-26 08:30N 58°49' W 003°28'816.4
2017-Jun-26 08:00N 58°41' W 003°31'4 8.5
2017-Jun-26 07:30N 58°37' W 003°32'0 0.2
2017-Jun-26 06:59N 58°37' W 003°33'816.7
2017-Jun-26 06:30N 58°45' W 003°30'917.4
2017-Jun-26 06:00N 58°53' W 003°27'713.4
2017-Jun-26 05:30N 58°58' W 003°18'0 0.4
2017-Jun-26 04:58N 58°58' W 003°18'0 0.0
2017-Jun-26 04:28N 58°58' W 003°18'0 0.0
2017-Jun-26 03:58N 58°58' W 003°18'0 0.0
2017-Jun-26 03:28N 58°58' W 003°18'0 0.0
2017-Jun-26 02:58N 58°58' W 003°18'0 0.0
2017-Jun-26 02:28N 58°58' W 003°18'0 0.0
2017-Jun-26 01:58N 58°58' W 003°18'0 0.0
2017-Jun-26 01:28N 58°58' W 003°18'0 0.0
2017-Jun-26 00:58N 58°58' W 003°18'0 0.0
2017-Jun-26 00:28N 58°58' W 003°18'0 0.0
2017-Jun-25 23:58N 58°58' W 003°18'0 0.0
2017-Jun-25 23:28N 58°58' W 003°18'0 0.0
2017-Jun-25 22:58N 58°58' W 003°18'0 0.0
2017-Jun-25 22:28N 58°58' W 003°18'0 0.0
2017-Jun-25 21:58N 58°58' W 003°18'0 0.0
2017-Jun-25 21:28N 58°58' W 003°18'0 0.0
2017-Jun-25 20:58N 58°58' W 003°18'0 0.0
2017-Jun-25 20:28N 58°58' W 003°18'0 0.0
2017-Jun-25 19:58N 58°58' W 003°18'0 0.0
2017-Jun-25 19:30N 58°58' W 003°18'611.2
2017-Jun-25 19:01N 58°55' W 003°27'815.8
2017-Jun-25 18:31N 58°47' W 003°30'815.4
2017-Jun-25 18:00N 58°39' W 003°31'3 5.2
2017-Jun-25 17:30N 58°37' W 003°32'3 5.3
2017-Jun-25 17:00N 58°39' W 003°31'917.4
2017-Jun-25 16:30N 58°48' W 003°30'816.8
2017-Jun-25 16:00N 58°56' W 003°25'4 8.8
2017-Jun-25 15:30N 58°58' W 003°18'0 0.0
2017-Jun-25 15:00N 58°58' W 003°18'0 0.0
2017-Jun-25 14:00N 58°58' W 003°18'0 0.0
2017-Jun-25 13:30N 58°58' W 003°18'0 0.0
2017-Jun-25 13:00N 58°58' W 003°18'2 3.2
2017-Jun-25 12:30N 58°57' W 003°16'816.2
2017-Jun-25 12:00N 58°49' W 003°09'713.3
2017-Jun-25 11:29N 58°44' W 003°18'817.5
2017-Jun-25 11:00N 58°38' W 003°30'2 2.3
2017-Jun-25 10:05N 58°37' W 003°32'2 8.7
2017-Jun-25 09:52N 58°38' W 003°30'514.3
2017-Jun-25 09:30N 58°42' W 003°24'612.3
2017-Jun-25 08:59N 58°46' W 003°14'4 9.4
2017-Jun-25 08:30N 58°50' W 003°11'816.7
2017-Jun-25 08:00N 58°57' W 003°18'0 0.4
2017-Jun-25 07:19N 58°58' W 003°18'0 0.0
2017-Jun-25 06:58N 58°58' W 003°18'0 0.0
2017-Jun-25 06:28N 58°58' W 003°18'0 0.0
2017-Jun-25 05:58N 58°58' W 003°18'0 0.0
2017-Jun-25 05:28N 58°58' W 003°18'0 0.0
2017-Jun-25 04:58N 58°58' W 003°18'0 0.0
2017-Jun-25 04:28N 58°58' W 003°18'0 0.0
2017-Jun-25 03:58N 58°58' W 003°18'0 0.0
2017-Jun-25 03:28N 58°58' W 003°18'0 0.0
2017-Jun-25 02:58N 58°58' W 003°18'0 0.0
2017-Jun-25 02:28N 58°58' W 003°18'0 0.0
2017-Jun-25 01:58N 58°58' W 003°18'0 0.0
2017-Jun-25 01:28N 58°58' W 003°18'0 0.0
2017-Jun-25 00:58N 58°58' W 003°18'0 0.0
2017-Jun-25 00:28N 58°58' W 003°18'0 0.0
2017-Jun-24 23:58N 58°58' W 003°18'0 0.0
2017-Jun-24 23:28N 58°58' W 003°18'0 0.0
2017-Jun-24 22:58N 58°58' W 003°18'0 0.0
2017-Jun-24 22:25N 58°58' W 003°18'0 0.0
2017-Jun-24 21:58N 58°58' W 003°18'0 0.1
2017-Jun-24 21:30N 58°58' W 003°18'713.3
2017-Jun-24 21:01N 58°52' W 003°11'612.3
2017-Jun-24 20:30N 58°46' W 003°13'1020.1
2017-Jun-24 20:00N 58°40' W 003°28'4 5.0
2017-Jun-24 19:13N 58°37' W 003°32'1 3.7
2017-Jun-24 18:58N 58°38' W 003°32'716.0
2017-Jun-24 18:30N 58°43' W 003°41'5 9.5
2017-Jun-24 18:01N 58°48' W 003°43'611.5
2017-Jun-24 17:30N 58°51' W 003°34'612.4
2017-Jun-24 17:00N 58°56' W 003°26'5 9.1
2017-Jun-24 16:30N 58°58' W 003°18'0 0.0
2017-Jun-24 16:00N 58°58' W 003°18'3 5.5
2017-Jun-24 15:30N 58°56' W 003°14'816.1
2017-Jun-24 15:01N 58°50' W 003°03'1111.0
2017-Jun-24 14:00N 58°41' W 003°15'815.0
2017-Jun-24 13:31N 58°39' W 003°29'3 5.3
2017-Jun-24 12:59N 58°37' W 003°32'0 0.2
2017-Jun-24 12:29N 58°37' W 003°33'713.9
2017-Jun-24 12:00N 58°42' W 003°38'714.9
2017-Jun-24 11:30N 58°50' W 003°34'714.5
2017-Jun-24 11:00N 58°56' W 003°26'5 9.5
2017-Jun-24 10:30N 58°58' W 003°18'0 0.0
2017-Jun-24 10:00N 58°58' W 003°18'510.3
2017-Jun-24 09:30N 58°54' W 003°12'714.3
2017-Jun-24 09:00N 58°47' W 003°09'1020.6
2017-Jun-24 08:30N 58°41' W 003°26'611.3
2017-Jun-24 07:59N 58°37' W 003°32'1 1.2
2017-Jun-24 07:25N 58°37' W 003°32'614.0
2017-Jun-24 07:00N 58°41' W 003°24'812.4
2017-Jun-24 06:24N 58°46' W 003°12'411.3
2017-Jun-24 06:00N 58°50' W 003°10'816.8
2017-Jun-24 05:30N 58°57' W 003°18'0 0.7
2017-Jun-24 05:01N 58°58' W 003°18'0 0.0
2017-Jun-24 04:30N 58°58' W 003°18'0 0.0
2017-Jun-24 04:01N 58°58' W 003°18'0 0.0
2017-Jun-24 03:30N 58°58' W 003°18'0 0.0
2017-Jun-24 03:00N 58°58' W 003°18'0 0.0
2017-Jun-24 02:30N 58°58' W 003°18'0 0.0
2017-Jun-24 02:00N 58°58' W 003°18'0 0.0
2017-Jun-24 01:30N 58°58' W 003°18'0 0.0
2017-Jun-24 01:00N 58°58' W 003°18'0 0.0
2017-Jun-24 00:30N 58°58' W 003°18'0 0.0
2017-Jun-24 00:01N 58°58' W 003°18'0 0.0
2017-Jun-23 23:31N 58°58' W 003°18'0 0.0
2017-Jun-23 23:00N 58°58' W 003°18'0 0.0
2017-Jun-23 22:30N 58°58' W 003°18'0 0.0
2017-Jun-23 22:00N 58°58' W 003°18'0 0.0
2017-Jun-23 21:30N 58°58' W 003°18'0 0.0
2017-Jun-23 21:00N 58°58' W 003°18'0 0.0
2017-Jun-23 20:30N 58°58' W 003°18'0 0.0
2017-Jun-23 20:01N 58°58' W 003°18'3 5.9
2017-Jun-23 19:30N 58°57' W 003°23'815.9
2017-Jun-23 19:00N 58°49' W 003°29'816.9
2017-Jun-23 18:30N 58°41' W 003°31'4 8.5
2017-Jun-23 18:00N 58°37' W 003°32'0 0.1
2017-Jun-23 17:27N 58°37' W 003°32'614.5
2017-Jun-23 17:00N 58°43' W 003°31'816.2
2017-Jun-23 16:30N 58°51' W 003°28'714.0
2017-Jun-23 16:00N 58°57' W 003°21'2 3.9
2017-Jun-23 15:30N 58°58' W 003°18'0 0.0
2017-Jun-23 15:00N 58°58' W 003°18'0 0.0
2017-Jun-23 14:00N 58°58' W 003°18'4 7.6
2017-Jun-23 13:30N 58°56' W 003°24'917.6
2017-Jun-23 13:00N 58°48' W 003°30'917.1
2017-Jun-23 12:30N 58°39' W 003°31'3 5.3
2017-Jun-23 11:59N 58°37' W 003°32'1 1.8
2017-Jun-23 11:30N 58°37' W 003°32'917.7
2017-Jun-23 11:00N 58°46' W 003°30'816.2
2017-Jun-23 10:30N 58°54' W 003°27'611.8
2017-Jun-23 10:00N 58°58' W 003°18'0 0.3
2017-Jun-23 09:30N 58°58' W 003°18'2 3.1
2017-Jun-23 09:00N 58°57' W 003°20'815.7
2017-Jun-23 08:30N 58°50' W 003°29'917.4
2017-Jun-23 08:00N 58°42' W 003°30'510.2
2017-Jun-23 07:30N 58°37' W 003°32'0 0.1
2017-Jun-23 06:59N 58°37' W 003°32'816.0
2017-Jun-23 06:30N 58°44' W 003°30'917.9
2017-Jun-23 06:00N 58°53' W 003°28'713.2
2017-Jun-23 05:30N 58°57' W 003°18'1 1.0
2017-Jun-23 04:57N 58°58' W 003°18'0 0.0
2017-Jun-23 04:27N 58°58' W 003°18'0 0.0
2017-Jun-23 03:57N 58°58' W 003°18'0 0.0
2017-Jun-23 03:27N 58°58' W 003°18'0 0.0
2017-Jun-23 02:57N 58°58' W 003°18'0 0.0
2017-Jun-23 02:27N 58°58' W 003°18'0 0.0
2017-Jun-23 01:57N 58°58' W 003°18'0 0.0
2017-Jun-23 01:28N 58°58' W 003°18'0 0.0
2017-Jun-23 01:00N 58°58' W 003°18'0 0.0
2017-Jun-23 00:27N 58°58' W 003°18'0 0.0
2017-Jun-22 23:57N 58°58' W 003°18'0 0.0
2017-Jun-22 23:27N 58°58' W 003°18'0 0.0
2017-Jun-22 22:57N 58°58' W 003°18'0 0.0
2017-Jun-22 22:30N 58°58' W 003°18'0 0.0
2017-Jun-22 22:00N 58°58' W 003°18'0 0.0
2017-Jun-22 21:15N 58°58' W 003°18'0 0.0
2017-Jun-22 21:00N 58°58' W 003°18'0 0.0
2017-Jun-22 20:30N 58°58' W 003°18'0 0.0
2017-Jun-22 19:57N 58°58' W 003°18'0 0.0
2017-Jun-22 19:30N 58°58' W 003°18'611.5
2017-Jun-22 19:00N 58°54' W 003°27'816.9
2017-Jun-22 18:30N 58°46' W 003°31'917.9
2017-Jun-22 18:00N 58°37' W 003°32'1 1.1
2017-Jun-22 17:26N 58°37' W 003°32'3 7.6
2017-Jun-22 17:01N 58°40' W 003°30'917.6
2017-Jun-22 16:31N 58°48' W 003°27'916.9
2017-Jun-22 16:00N 58°56' W 003°23'3 5.7
2017-Jun-22 15:30N 58°58' W 003°18'0 0.0
2017-Jun-22 15:00N 58°58' W 003°18'0 0.0
2017-Jun-22 14:30N 58°58' W 003°18'1 1.0
2017-Jun-22 13:30N 58°57' W 003°17'714.6
2017-Jun-22 13:01N 58°52' W 003°28'918.1
2017-Jun-22 12:30N 58°43' W 003°30'612.8
2017-Jun-22 12:01N 58°37' W 003°32'0 0.1
2017-Jun-22 11:30N 58°37' W 003°32'714.5
2017-Jun-22 11:01N 58°44' W 003°30'917.4
2017-Jun-22 10:30N 58°52' W 003°28'714.5
2017-Jun-22 10:00N 58°57' W 003°18'0 0.7
2017-Jun-22 09:30N 58°58' W 003°18'1 2.4
2017-Jun-22 09:01N 58°57' W 003°19'815.3
2017-Jun-22 08:30N 58°51' W 003°28'917.5
2017-Jun-22 08:00N 58°42' W 003°31'611.0
2017-Jun-22 07:30N 58°37' W 003°32'3 4.3
2017-Jun-22 06:47N 58°40' W 003°31'517.6
2017-Jun-22 06:30N 58°45' W 003°30'918.4
2017-Jun-22 06:00N 58°54' W 003°27'612.2
2017-Jun-22 05:30N 58°58' W 003°18'0 0.4
2017-Jun-22 04:54N 58°58' W 003°18'0 0.0
2017-Jun-22 04:30N 58°58' W 003°18'0 0.0
2017-Jun-22 04:00N 58°58' W 003°18'0 0.0
2017-Jun-22 03:30N 58°58' W 003°18'0 0.0
2017-Jun-22 03:00N 58°58' W 003°18'0 0.0
2017-Jun-22 02:30N 58°58' W 003°18'0 0.0
2017-Jun-22 02:00N 58°58' W 003°18'0 0.0
2017-Jun-22 01:30N 58°58' W 003°18'0 0.0
2017-Jun-22 01:00N 58°58' W 003°18'0 0.0
2017-Jun-22 00:30N 58°58' W 003°18'0 0.0
2017-Jun-21 23:54N 58°58' W 003°18'0 0.0
2017-Jun-21 23:30N 58°58' W 003°18'0 0.0
2017-Jun-21 23:00N 58°58' W 003°18'0 0.0
2017-Jun-21 22:30N 58°58' W 003°18'0 0.0
2017-Jun-21 22:00N 58°58' W 003°18'0 0.0
2017-Jun-21 21:30N 58°58' W 003°18'0 0.0
2017-Jun-21 20:59N 58°58' W 003°18'0 0.0
2017-Jun-21 20:29N 58°58' W 003°18'0 0.0
2017-Jun-21 19:59N 58°58' W 003°18'0 0.0
2017-Jun-21 19:30N 58°58' W 003°18'4 7.9
2017-Jun-21 19:00N 58°56' W 003°24'917.2
2017-Jun-21 18:30N 58°48' W 003°30'917.6
2017-Jun-21 18:00N 58°39' W 003°31'3 5.0
2017-Jun-21 17:30N 58°37' W 003°32'2 4.6
2017-Jun-21 17:00N 58°39' W 003°31'917.8
2017-Jun-21 16:30N 58°48' W 003°29'917.8
2017-Jun-21 16:00N 58°56' W 003°24'4 7.1
2017-Jun-21 15:31N 58°58' W 003°18'0 0.0
2017-Jun-21 15:01N 58°58' W 003°18'0 0.0
2017-Jun-21 14:30N 58°58' W 003°18'2 1.7
2017-Jun-21 13:30N 58°57' W 003°20'815.8
2017-Jun-21 13:00N 58°50' W 003°28'918.0
2017-Jun-21 12:30N 58°41' W 003°31'5 9.2
2017-Jun-21 12:00N 58°37' W 003°32'0 0.1
2017-Jun-21 11:30N 58°37' W 003°32'714.5
2017-Jun-21 11:00N 58°44' W 003°30'917.0
2017-Jun-21 10:30N 58°52' W 003°28'714.6
2017-Jun-21 10:00N 58°57' W 003°18'0 0.8
2017-Jun-21 09:30N 58°58' W 003°18'1 2.1
2017-Jun-21 09:00N 58°57' W 003°18'714.3
2017-Jun-21 08:30N 58°52' W 003°28'917.9
2017-Jun-21 08:00N 58°43' W 003°30'612.7
2017-Jun-21 07:30N 58°37' W 003°32'0 0.3
2017-Jun-21 06:58N 58°37' W 003°32'715.8
2017-Jun-21 06:30N 58°44' W 003°30'918.1
2017-Jun-21 06:00N 58°53' W 003°27'713.6
2017-Jun-21 05:30N 58°57' W 003°18'0 0.6
2017-Jun-21 04:58N 58°58' W 003°18'0 0.0
2017-Jun-21 04:28N 58°58' W 003°18'0 0.0
2017-Jun-21 04:00N 58°58' W 003°18'0 0.0
2017-Jun-21 03:30N 58°58' W 003°18'0 0.0
2017-Jun-21 03:00N 58°58' W 003°18'0 0.0
2017-Jun-21 02:30N 58°58' W 003°18'0 0.0
2017-Jun-21 02:00N 58°58' W 003°18'0 0.0
2017-Jun-21 01:30N 58°58' W 003°18'0 0.0
2017-Jun-21 01:00N 58°58' W 003°18'0 0.0
2017-Jun-21 00:30N 58°58' W 003°18'0 0.0
2017-Jun-21 00:00N 58°58' W 003°18'0 0.0
2017-Jun-20 23:30N 58°58' W 003°18'0 0.0
2017-Jun-20 23:00N 58°58' W 003°18'0 0.0
2017-Jun-20 22:30N 58°58' W 003°18'0 0.0
2017-Jun-20 22:00N 58°58' W 003°18'0 0.0
2017-Jun-20 21:30N 58°58' W 003°18'0 0.0
2017-Jun-20 21:00N 58°58' W 003°18'0 0.0
2017-Jun-20 20:30N 58°58' W 003°18'0 0.0
2017-Jun-20 20:00N 58°58' W 003°18'0 0.0
2017-Jun-20 19:30N 58°58' W 003°18'4 8.5
2017-Jun-20 19:01N 58°56' W 003°25'816.9
2017-Jun-20 18:31N 58°48' W 003°30'917.3
2017-Jun-20 18:00N 58°39' W 003°32'2 4.9
2017-Jun-20 17:30N 58°37' W 003°32'3 5.8
2017-Jun-20 16:57N 58°40' W 003°31'817.8
2017-Jun-20 16:30N 58°48' W 003°29'917.8
2017-Jun-20 16:00N 58°56' W 003°24'4 7.1
2017-Jun-20 15:30N 58°58' W 003°18'0 0.0
2017-Jun-20 15:00N 58°58' W 003°18'0 0.0
2017-Jun-20 14:00N 58°58' W 003°18'1 1.2
2017-Jun-20 13:30N 58°57' W 003°17'714.8
2017-Jun-20 13:00N 58°52' W 003°27'917.7
2017-Jun-20 12:31N 58°43' W 003°30'713.2
2017-Jun-20 12:00N 58°37' W 003°32'0 0.0
2017-Jun-20 11:30N 58°37' W 003°32'713.8
2017-Jun-20 11:01N 58°43' W 003°30'917.2
2017-Jun-20 10:30N 58°52' W 003°28'715.0
2017-Jun-20 10:00N 58°57' W 003°17'1 1.5
2017-Jun-20 09:31N 58°58' W 003°18'2 3.0
2017-Jun-20 09:00N 58°57' W 003°20'815.6
2017-Jun-20 08:30N 58°50' W 003°28'917.3
2017-Jun-20 08:00N 58°42' W 003°30'5 8.5
2017-Jun-20 07:24N 58°37' W 003°32'3 4.2
2017-Jun-20 06:43N 58°39' W 003°31'417.9
2017-Jun-20 06:30N 58°43' W 003°30'918.1
2017-Jun-20 06:00N 58°52' W 003°28'714.5
2017-Jun-20 05:30N 58°57' W 003°17'1 1.7
2017-Jun-20 04:59N 58°58' W 003°18'0 0.0
2017-Jun-20 04:29N 58°58' W 003°18'0 0.0
2017-Jun-20 03:59N 58°58' W 003°18'0 0.0
2017-Jun-20 03:29N 58°58' W 003°18'0 0.0
2017-Jun-20 02:59N 58°58' W 003°18'0 0.0
2017-Jun-20 02:29N 58°58' W 003°18'0 0.0
2017-Jun-20 01:59N 58°58' W 003°18'0 0.0
2017-Jun-20 01:29N 58°58' W 003°18'0 0.0
2017-Jun-20 00:59N 58°58' W 003°18'0 0.0
2017-Jun-20 00:29N 58°58' W 003°18'0 0.0
2017-Jun-19 23:59N 58°58' W 003°18'0 0.0
2017-Jun-19 23:29N 58°58' W 003°18'0 0.0
2017-Jun-19 22:59N 58°58' W 003°18'0 0.0
2017-Jun-19 22:29N 58°58' W 003°18'0 0.0
2017-Jun-19 21:59N 58°58' W 003°18'0 0.0
2017-Jun-19 21:29N 58°58' W 003°18'0 0.0
2017-Jun-19 20:59N 58°58' W 003°18'0 0.0
2017-Jun-19 20:29N 58°58' W 003°18'0 0.0
2017-Jun-19 19:59N 58°58' W 003°18'0 0.0
2017-Jun-19 19:30N 58°58' W 003°18'510.0
2017-Jun-19 19:00N 58°55' W 003°26'917.1
2017-Jun-19 18:30N 58°47' W 003°29'917.3
2017-Jun-19 18:00N 58°38' W 003°31'1 2.9
2017-Jun-19 17:30N 58°37' W 003°32'3 5.7
2017-Jun-19 17:00N 58°39' W 003°31'918.0
2017-Jun-19 16:30N 58°48' W 003°29'917.1
2017-Jun-19 16:00N 58°56' W 003°23'3 6.6
2017-Jun-19 15:30N 58°58' W 003°18'0 0.0
2017-Jun-19 15:00N 58°58' W 003°18'0 0.0
2017-Jun-19 14:30N 58°58' W 003°18'1 1.1
2017-Jun-19 13:30N 58°57' W 003°19'815.9
2017-Jun-19 13:00N 58°51' W 003°28'917.8
2017-Jun-19 12:30N 58°42' W 003°31'510.4
2017-Jun-19 12:00N 58°37' W 003°32'0 0.0
2017-Jun-19 11:30N 58°37' W 003°32'713.4
2017-Jun-19 11:01N 58°43' W 003°30'917.3
2017-Jun-19 10:30N 58°52' W 003°28'815.1
2017-Jun-19 10:00N 58°57' W 003°17'1 1.7
2017-Jun-19 09:30N 58°58' W 003°18'1 1.3
2017-Jun-19 09:00N 58°57' W 003°17'714.8
2017-Jun-19 08:30N 58°52' W 003°28'918.1
2017-Jun-19 08:00N 58°43' W 003°30'713.5
2017-Jun-19 07:30N 58°37' W 003°32'0 0.0
2017-Jun-19 07:00N 58°37' W 003°32'612.6
2017-Jun-19 06:31N 58°43' W 003°30'918.0
2017-Jun-19 06:01N 58°52' W 003°28'815.3
2017-Jun-19 05:30N 58°57' W 003°17'1 1.4
2017-Jun-19 04:55N 58°58' W 003°18'0 0.0
2017-Jun-19 04:27N 58°58' W 003°18'0 0.0
2017-Jun-19 04:00N 58°58' W 003°18'0 0.0
2017-Jun-19 03:31N 58°58' W 003°18'0 0.0
2017-Jun-19 03:01N 58°58' W 003°18'0 0.0
2017-Jun-19 02:25N 58°58' W 003°18'0 0.0
2017-Jun-19 01:55N 58°58' W 003°18'  

Dump ship's entire track history